Santa Maria, Texas
Current Conditions -  °F | °C
As of 10:35 AM on Thursday 23 Oct 2014 (Local Time) from KT65 Reporting Station
Broken Clouds Broken Clouds  
Wind Chill: 75°   Ceiling: 12000
Heat Index: 75°   Visibility: 7mi
Dew Point: 67°   Wind: 5mph
Humidity: 75%   Direction: 30°NNE
Pressure: 30.09"   Gusts: NA
Location:  26.08°N, 97.85°W
Report Text: KT65 231535Z AUTO 03004KT 7SM BKN120 24/20 A3009 RMK AO2 T02410195
Loading
Personal Weather Stations






























Interactive Weather Map
Tropical Storm Tracking
New forecast layout! Learn more

10-Day Weather Forecast

Advertisements
Track Severe Weather on mobile